sensor_id;sensor_type;location;lat;lon;timestamp;temperature;humidity
40670;DHT22;26355;45.528;9.234;2022-10-17T00:01:06;19.90;99.90
40670;DHT22;26355;45.528;9.234;2022-10-17T00:03:33;19.90;99.90
40670;DHT22;26355;45.528;9.234;2022-10-17T00:05:58;19.90;99.90
40670;DHT22;26355;45.528;9.234;2022-10-17T00:08:28;19.80;99.90
40670;DHT22;26355;45.528;9.234;2022-10-17T00:10:57;19.70;99.90
40670;DHT22;26355;45.528;9.234;2022-10-17T00:13:23;19.70;99.90
40670;DHT22;26355;45.528;9.234;2022-10-17T00:15:48;19.70;99.90
40670;DHT22;26355;45.528;9.234;2022-10-17T00:18:14;19.60;99.90
40670;DHT22;26355;45.528;9.234;2022-10-17T00:20:39;19.60;99.90
40670;DHT22;26355;45.528;9.234;2022-10-17T00:23:05;19.60;99.90
40670;DHT22;26355;45.528;9.234;2022-10-17T00:25:30;19.60;99.90
40670;DHT22;26355;45.528;9.234;2022-10-17T00:27:56;19.50;99.90
40670;DHT22;26355;45.528;9.234;2022-10-17T00:30:21;19.50;99.90
40670;DHT22;26355;45.528;9.234;2022-10-17T00:32:47;19.50;99.90
40670;DHT22;26355;45.528;9.234;2022-10-17T00:35:13;19.50;99.90
40670;DHT22;26355;45.528;9.234;2022-10-17T00:37:38;19.50;99.90
40670;DHT22;26355;45.528;9.234;2022-10-17T00:40:05;19.50;99.90
40670;DHT22;26355;45.528;9.234;2022-10-17T00:42:31;19.50;99.90
40670;DHT22;26355;45.528;9.234;2022-10-17T00:45:07;19.40;99.90
40670;DHT22;26355;45.528;9.234;2022-10-17T00:47:36;19.40;99.90
40670;DHT22;26355;45.528;9.234;2022-10-17T00:50:04;19.50;99.90
40670;DHT22;26355;45.528;9.234;2022-10-17T00:52:31;19.50;99.90
40670;DHT22;26355;45.528;9.234;2022-10-17T00:55:03;19.50;99.90
40670;DHT22;26355;45.528;9.234;2022-10-17T00:57:33;19.40;99.90
40670;DHT22;26355;45.528;9.234;2022-10-17T00:59:59;19.50;99.90
40670;DHT22;26355;45.528;9.234;2022-10-17T01:02:27;19.40;99.90
40670;DHT22;26355;45.528;9.234;2022-10-17T01:04:53;19.40;99.90
40670;DHT22;26355;45.528;9.234;2022-10-17T01:07:21;19.40;99.90
40670;DHT22;26355;45.528;9.234;2022-10-17T01:09:47;19.40;99.90
40670;DHT22;26355;45.528;9.234;2022-10-17T01:12:27;19.50;99.90
40670;DHT22;26355;45.528;9.234;2022-10-17T01:15:24;19.50;99.90
40670;DHT22;26355;45.528;9.234;2022-10-17T01:18:13;19.60;99.90
40670;DHT22;26355;45.528;9.234;2022-10-17T01:32:00;19.80;99.90
40670;DHT22;26355;45.528;9.234;2022-10-17T01:34:37;19.90;99.90
40670;DHT22;26355;45.528;9.234;2022-10-17T01:37:15;19.90;99.90
40670;DHT22;26355;45.528;9.234;2022-10-17T01:39:51;20.00;99.90
40670;DHT22;26355;45.528;9.234;2022-10-17T01:42:32;19.90;99.90
40670;DHT22;26355;45.528;9.234;2022-10-17T01:45:10;20.00;99.90
40670;DHT22;26355;45.528;9.234;2022-10-17T01:47:39;20.00;99.90
40670;DHT22;26355;45.528;9.234;2022-10-17T01:50:11;20.00;99.90
40670;DHT22;26355;45.528;9.234;2022-10-17T01:52:44;20.00;99.90
40670;DHT22;26355;45.528;9.234;2022-10-17T01:55:14;20.00;99.90
40670;DHT22;26355;45.528;9.234;2022-10-17T01:57:47;20.00;99.90
40670;DHT22;26355;45.528;9.234;2022-10-17T02:00:18;20.00;99.90
40670;DHT22;26355;45.528;9.234;2022-10-17T02:02:47;19.90;99.90
40670;DHT22;26355;45.528;9.234;2022-10-17T02:05:16;19.90;99.90
40670;DHT22;26355;45.528;9.234;2022-10-17T02:07:43;19.90;99.90
40670;DHT22;26355;45.528;9.234;2022-10-17T02:10:15;19.80;99.90
40670;DHT22;26355;45.528;9.234;2022-10-17T02:12:52;19.80;99.90
40670;DHT22;26355;45.528;9.234;2022-10-17T02:21:01;19.60;99.90
40670;DHT22;26355;45.528;9.234;2022-10-17T02:26:43;19.50;99.90
40670;DHT22;26355;45.528;9.234;2022-10-17T02:29:15;19.40;99.90
40670;DHT22;26355;45.528;9.234;2022-10-17T02:31:50;19.40;99.90
40670;DHT22;26355;45.528;9.234;2022-10-17T02:34:31;19.30;99.90
40670;DHT22;26355;45.528;9.234;2022-10-17T02:37:00;19.30;99.90
40670;DHT22;26355;45.528;9.234;2022-10-17T02:39:27;19.30;99.90
40670;DHT22;26355;45.528;9.234;2022-10-17T02:41:55;19.30;99.90
40670;DHT22;26355;45.528;9.234;2022-10-17T02:44:22;19.40;99.90
40670;DHT22;26355;45.528;9.234;2022-10-17T02:46:54;19.40;99.90
40670;DHT22;26355;45.528;9.234;2022-10-17T02:49:27;19.40;99.90
40670;DHT22;26355;45.528;9.234;2022-10-17T02:52:00;19.40;99.90
40670;DHT22;26355;45.528;9.234;2022-10-17T02:54:38;19.40;99.90
40670;DHT22;26355;45.528;9.234;2022-10-17T02:59:43;19.40;99.90
40670;DHT22;26355;45.528;9.234;2022-10-17T03:02:10;19.40;99.90
40670;DHT22;26355;45.528;9.234;2022-10-17T03:04:36;19.40;99.90
40670;DHT22;26355;45.528;9.234;2022-10-17T03:07:02;19.40;99.90
40670;DHT22;26355;45.528;9.234;2022-10-17T03:09:28;19.40;99.90
40670;DHT22;26355;45.528;9.234;2022-10-17T03:11:53;19.40;99.90
40670;DHT22;26355;45.528;9.234;2022-10-17T03:14:19;19.30;99.90
40670;DHT22;26355;45.528;9.234;2022-10-17T03:16:45;19.30;99.90
40670;DHT22;26355;45.528;9.234;2022-10-17T03:19:10;19.30;99.90
40670;DHT22;26355;45.528;9.234;2022-10-17T03:21:36;19.30;99.90
40670;DHT22;26355;45.528;9.234;2022-10-17T03:24:03;19.20;99.90
40670;DHT22;26355;45.528;9.234;2022-10-17T03:26:28;19.20;99.90
40670;DHT22;26355;45.528;9.234;2022-10-17T03:28:54;19.20;99.90
40670;DHT22;26355;45.528;9.234;2022-10-17T03:31:20;19.20;99.90
40670;DHT22;26355;45.528;9.234;2022-10-17T03:33:46;19.30;99.90
40670;DHT22;26355;45.528;9.234;2022-10-17T03:36:15;19.30;99.90
40670;DHT22;26355;45.528;9.234;2022-10-17T03:38:41;19.20;99.90
40670;DHT22;26355;45.528;9.234;2022-10-17T03:41:07;19.30;99.90
40670;DHT22;26355;45.528;9.234;2022-10-17T03:43:33;19.30;99.90
40670;DHT22;26355;45.528;9.234;2022-10-17T03:45:59;19.30;99.90
40670;DHT22;26355;45.528;9.234;2022-10-17T03:48:27;19.20;99.90
40670;DHT22;26355;45.528;9.234;2022-10-17T03:50:58;19.30;99.90
40670;DHT22;26355;45.528;9.234;2022-10-17T03:53:24;19.20;99.90
40670;DHT22;26355;45.528;9.234;2022-10-17T03:55:50;19.20;99.90
40670;DHT22;26355;45.528;9.234;2022-10-17T03:58:16;19.10;99.90
40670;DHT22;26355;45.528;9.234;2022-10-17T04:00:41;19.10;99.90
40670;DHT22;26355;45.528;9.234;2022-10-17T04:03:07;19.20;99.90
40670;DHT22;26355;45.528;9.234;2022-10-17T04:05:32;19.10;99.90
40670;DHT22;26355;45.528;9.234;2022-10-17T04:07:58;19.10;99.90
40670;DHT22;26355;45.528;9.234;2022-10-17T04:10:23;19.10;99.90
40670;DHT22;26355;45.528;9.234;2022-10-17T04:12:49;19.00;99.90
40670;DHT22;26355;45.528;9.234;2022-10-17T04:15:15;19.00;99.90
40670;DHT22;26355;45.528;9.234;2022-10-17T04:17:40;19.00;99.90
40670;DHT22;26355;45.528;9.234;2022-10-17T04:20:06;18.90;99.90
40670;DHT22;26355;45.528;9.234;2022-10-17T04:22:32;18.90;99.90
40670;DHT22;26355;45.528;9.234;2022-10-17T04:24:57;18.80;99.90
40670;DHT22;26355;45.528;9.234;2022-10-17T04:27:23;18.90;99.90
40670;DHT22;26355;45.528;9.234;2022-10-17T04:29:49;18.80;99.90
40670;DHT22;26355;45.528;9.234;2022-10-17T04:32:14;18.80;99.90
40670;DHT22;26355;45.528;9.234;2022-10-17T04:34:40;18.80;99.90
40670;DHT22;26355;45.528;9.234;2022-10-17T04:37:05;18.80;99.90
40670;DHT22;26355;45.528;9.234;2022-10-17T04:39:31;18.80;99.90
40670;DHT22;26355;45.528;9.234;2022-10-17T04:41:56;18.80;99.90
40670;DHT22;26355;45.528;9.234;2022-10-17T04:44:22;18.80;99.90
40670;DHT22;26355;45.528;9.234;2022-10-17T04:46:48;18.90;99.90
40670;DHT22;26355;45.528;9.234;2022-10-17T04:49:13;18.80;99.90
40670;DHT22;26355;45.528;9.234;2022-10-17T04:51:39;18.90;99.90
40670;DHT22;26355;45.528;9.234;2022-10-17T04:54:05;18.90;99.90
40670;DHT22;26355;45.528;9.234;2022-10-17T04:56:31;18.80;99.90
40670;DHT22;26355;45.528;9.234;2022-10-17T04:58:58;18.80;99.90
40670;DHT22;26355;45.528;9.234;2022-10-17T05:01:24;18.80;99.90
40670;DHT22;26355;45.528;9.234;2022-10-17T05:03:50;18.80;99.90
40670;DHT22;26355;45.528;9.234;2022-10-17T05:06:22;18.80;99.90
40670;DHT22;26355;45.528;9.234;2022-10-17T05:08:48;18.80;99.90
40670;DHT22;26355;45.528;9.234;2022-10-17T05:11:19;18.80;99.90
40670;DHT22;26355;45.528;9.234;2022-10-17T05:13:49;18.80;99.90
40670;DHT22;26355;45.528;9.234;2022-10-17T05:16:15;18.80;99.90
40670;DHT22;26355;45.528;9.234;2022-10-17T05:18:41;18.80;99.90
40670;DHT22;26355;45.528;9.234;2022-10-17T05:21:07;18.70;99.90
40670;DHT22;26355;45.528;9.234;2022-10-17T05:23:32;18.80;99.90
40670;DHT22;26355;45.528;9.234;2022-10-17T05:25:58;18.70;99.90
40670;DHT22;26355;45.528;9.234;2022-10-17T05:28:24;18.70;99.90
40670;DHT22;26355;45.528;9.234;2022-10-17T05:30:49;18.70;99.90
40670;DHT22;26355;45.528;9.234;2022-10-17T05:33:15;18.70;99.90
40670;DHT22;26355;45.528;9.234;2022-10-17T05:35:41;18.70;99.90
40670;DHT22;26355;45.528;9.234;2022-10-17T05:38:06;18.70;99.90
40670;DHT22;26355;45.528;9.234;2022-10-17T05:40:32;18.70;99.90
40670;DHT22;26355;45.528;9.234;2022-10-17T05:42:58;18.70;99.90
40670;DHT22;26355;45.528;9.234;2022-10-17T05:45:23;18.70;99.90
40670;DHT22;26355;45.528;9.234;2022-10-17T05:47:49;18.60;99.90
40670;DHT22;26355;45.528;9.234;2022-10-17T05:50:15;18.60;99.90
40670;DHT22;26355;45.528;9.234;2022-10-17T05:52:40;18.60;99.90
40670;DHT22;26355;45.528;9.234;2022-10-17T05:55:06;18.60;99.90
40670;DHT22;26355;45.528;9.234;2022-10-17T05:57:32;18.60;99.90
40670;DHT22;26355;45.528;9.234;2022-10-17T05:59:58;18.60;99.90
40670;DHT22;26355;45.528;9.234;2022-10-17T06:02:23;18.60;99.90
40670;DHT22;26355;45.528;9.234;2022-10-17T06:04:49;18.60;99.90
40670;DHT22;26355;45.528;9.234;2022-10-17T06:07:15;18.60;99.90
40670;DHT22;26355;45.528;9.234;2022-10-17T06:09:41;18.70;99.90
40670;DHT22;26355;45.528;9.234;2022-10-17T06:12:07;18.70;99.90
40670;DHT22;26355;45.528;9.234;2022-10-17T06:14:33;18.70;99.90
40670;DHT22;26355;45.528;9.234;2022-10-17T06:16:59;18.60;99.90
40670;DHT22;26355;45.528;9.234;2022-10-17T06:19:25;18.70;99.90
40670;DHT22;26355;45.528;9.234;2022-10-17T06:21:51;18.80;99.90
40670;DHT22;26355;45.528;9.234;2022-10-17T06:24:16;18.80;99.90
40670;DHT22;26355;45.528;9.234;2022-10-17T06:26:42;18.80;99.90
40670;DHT22;26355;45.528;9.234;2022-10-17T06:29:08;18.90;99.90
40670;DHT22;26355;45.528;9.234;2022-10-17T06:31:34;18.90;99.90
40670;DHT22;26355;45.528;9.234;2022-10-17T06:34:00;18.90;99.90
40670;DHT22;26355;45.528;9.234;2022-10-17T06:36:26;18.90;99.90
40670;DHT22;26355;45.528;9.234;2022-10-17T06:38:53;19.00;99.90
40670;DHT22;26355;45.528;9.234;2022-10-17T06:41:18;19.00;99.90
40670;DHT22;26355;45.528;9.234;2022-10-17T06:43:45;19.00;99.90
40670;DHT22;26355;45.528;9.234;2022-10-17T06:46:16;19.10;99.90
40670;DHT22;26355;45.528;9.234;2022-10-17T06:48:42;19.10;99.90
40670;DHT22;26355;45.528;9.234;2022-10-17T06:51:08;19.10;99.90
40670;DHT22;26355;45.528;9.234;2022-10-17T06:53:38;19.20;99.90
40670;DHT22;26355;45.528;9.234;2022-10-17T06:56:05;19.30;99.90
40670;DHT22;26355;45.528;9.234;2022-10-17T06:58:37;19.30;99.90
40670;DHT22;26355;45.528;9.234;2022-10-17T07:01:06;19.40;99.90
40670;DHT22;26355;45.528;9.234;2022-10-17T07:03:32;19.60;99.90
40670;DHT22;26355;45.528;9.234;2022-10-17T07:05:58;19.90;99.90
40670;DHT22;26355;45.528;9.234;2022-10-17T07:08:25;20.10;99.90
40670;DHT22;26355;45.528;9.234;2022-10-17T07:10:51;20.30;99.90
40670;DHT22;26355;45.528;9.234;2022-10-17T07:13:17;20.50;99.90
40670;DHT22;26355;45.528;9.234;2022-10-17T07:15:43;20.80;99.90
40670;DHT22;26355;45.528;9.234;2022-10-17T07:18:09;20.90;99.90
40670;DHT22;26355;45.528;9.234;2022-10-17T07:20:35;21.10;99.90
40670;DHT22;26355;45.528;9.234;2022-10-17T07:23:01;21.10;99.90
40670;DHT22;26355;45.528;9.234;2022-10-17T07:25:27;21.30;99.90
40670;DHT22;26355;45.528;9.234;2022-10-17T07:27:53;21.40;99.90
40670;DHT22;26355;45.528;9.234;2022-10-17T07:30:19;21.70;99.90
40670;DHT22;26355;45.528;9.234;2022-10-17T07:32:45;21.80;99.90
40670;DHT22;26355;45.528;9.234;2022-10-17T07:35:11;21.90;99.90
40670;DHT22;26355;45.528;9.234;2022-10-17T07:37:37;22.00;99.90
40670;DHT22;26355;45.528;9.234;2022-10-17T07:40:04;21.90;99.90
40670;DHT22;26355;45.528;9.234;2022-10-17T07:42:31;21.80;99.90
40670;DHT22;26355;45.528;9.234;2022-10-17T07:44:57;21.70;99.90
40670;DHT22;26355;45.528;9.234;2022-10-17T07:47:23;21.60;99.90
40670;DHT22;26355;45.528;9.234;2022-10-17T07:49:49;21.60;99.90
40670;DHT22;26355;45.528;9.234;2022-10-17T07:52:15;21.60;99.90
40670;DHT22;26355;45.528;9.234;2022-10-17T07:54:41;21.70;99.90
40670;DHT22;26355;45.528;9.234;2022-10-17T07:57:08;21.70;99.90
40670;DHT22;26355;45.528;9.234;2022-10-17T07:59:34;21.70;99.90
40670;DHT22;26355;45.528;9.234;2022-10-17T08:02:01;21.80;99.90
40670;DHT22;26355;45.528;9.234;2022-10-17T08:04:27;21.70;99.90
40670;DHT22;26355;45.528;9.234;2022-10-17T08:06:53;21.70;99.90
40670;DHT22;26355;45.528;9.234;2022-10-17T08:09:18;21.70;99.90
40670;DHT22;26355;45.528;9.234;2022-10-17T08:11:44;21.80;99.90
40670;DHT22;26355;45.528;9.234;2022-10-17T08:14:11;21.90;99.90
40670;DHT22;26355;45.528;9.234;2022-10-17T08:16:37;22.00;99.90
40670;DHT22;26355;45.528;9.234;2022-10-17T08:19:03;22.00;99.90
40670;DHT22;26355;45.528;9.234;2022-10-17T08:21:29;22.10;99.90
40670;DHT22;26355;45.528;9.234;2022-10-17T08:23:55;22.20;99.90
40670;DHT22;26355;45.528;9.234;2022-10-17T08:26:21;22.30;99.90
40670;DHT22;26355;45.528;9.234;2022-10-17T08:28:47;22.30;99.90
40670;DHT22;26355;45.528;9.234;2022-10-17T08:31:15;22.30;99.90
40670;DHT22;26355;45.528;9.234;2022-10-17T08:33:43;22.50;99.90
40670;DHT22;26355;45.528;9.234;2022-10-17T08:36:12;22.50;99.90
40670;DHT22;26355;45.528;9.234;2022-10-17T08:38:38;22.50;99.90
40670;DHT22;26355;45.528;9.234;2022-10-17T08:41:14;22.60;99.90
40670;DHT22;26355;45.528;9.234;2022-10-17T08:43:50;22.50;99.90
40670;DHT22;26355;45.528;9.234;2022-10-17T08:46:20;22.60;99.90
40670;DHT22;26355;45.528;9.234;2022-10-17T08:48:47;22.60;99.90
40670;DHT22;26355;45.528;9.234;2022-10-17T08:51:23;22.70;99.90
40670;DHT22;26355;45.528;9.234;2022-10-17T08:53:57;22.80;99.90
40670;DHT22;26355;45.528;9.234;2022-10-17T08:56:29;22.80;99.90
40670;DHT22;26355;45.528;9.234;2022-10-17T08:58:57;22.90;99.90
40670;DHT22;26355;45.528;9.234;2022-10-17T09:01:38;23.00;99.90
40670;DHT22;26355;45.528;9.234;2022-10-17T09:12:28;23.00;99.90
40670;DHT22;26355;45.528;9.234;2022-10-17T09:15:39;23.00;99.90
40670;DHT22;26355;45.528;9.234;2022-10-17T09:18:14;23.10;99.90
40670;DHT22;26355;45.528;9.234;2022-10-17T09:20:53;23.30;99.90
40670;DHT22;26355;45.528;9.234;2022-10-17T09:23:54;23.30;99.90
40670;DHT22;26355;45.528;9.234;2022-10-17T09:26:20;23.40;99.90
40670;DHT22;26355;45.528;9.234;2022-10-17T09:28:53;23.50;99.90
40670;DHT22;26355;45.528;9.234;2022-10-17T09:31:48;23.60;99.90
40670;DHT22;26355;45.528;9.234;2022-10-17T09:34:15;23.40;99.90
40670;DHT22;26355;45.528;9.234;2022-10-17T09:36:41;23.30;99.90
40670;DHT22;26355;45.528;9.234;2022-10-17T09:39:19;23.10;99.90
40670;DHT22;26355;45.528;9.234;2022-10-17T09:49:57;23.60;99.90
40670;DHT22;26355;45.528;9.234;2022-10-17T09:52:41;23.70;99.90
40670;DHT22;26355;45.528;9.234;2022-10-17T09:55:20;23.80;99.90
40670;DHT22;26355;45.528;9.234;2022-10-17T09:57:59;23.80;99.90
40670;DHT22;26355;45.528;9.234;2022-10-17T10:00:29;24.00;99.90
40670;DHT22;26355;45.528;9.234;2022-10-17T10:03:27;24.10;99.90
40670;DHT22;26355;45.528;9.234;2022-10-17T10:06:17;24.00;99.90
40670;DHT22;26355;45.528;9.234;2022-10-17T10:08:56;24.10;99.90
40670;DHT22;26355;45.528;9.234;2022-10-17T10:11:50;24.10;99.90
40670;DHT22;26355;45.528;9.234;2022-10-17T10:14:36;24.30;99.90
40670;DHT22;26355;45.528;9.234;2022-10-17T10:17:23;24.40;99.90
40670;DHT22;26355;45.528;9.234;2022-10-17T10:19:50;24.60;99.90
40670;DHT22;26355;45.528;9.234;2022-10-17T10:22:18;24.60;99.90
40670;DHT22;26355;45.528;9.234;2022-10-17T10:24:44;24.60;99.90
40670;DHT22;26355;45.528;9.234;2022-10-17T10:27:15;24.30;99.90
40670;DHT22;26355;45.528;9.234;2022-10-17T10:29:49;24.20;99.90
40670;DHT22;26355;45.528;9.234;2022-10-17T10:32:20;24.40;99.90
40670;DHT22;26355;45.528;9.234;2022-10-17T10:34:51;24.60;99.90
40670;DHT22;26355;45.528;9.234;2022-10-17T10:37:23;24.40;99.90
40670;DHT22;26355;45.528;9.234;2022-10-17T10:41:00;24.50;99.90
40670;DHT22;26355;45.528;9.234;2022-10-17T10:42:56;24.60;99.90
40670;DHT22;26355;45.528;9.234;2022-10-17T10:45:28;24.80;99.90
40670;DHT22;26355;45.528;9.234;2022-10-17T10:48:19;25.00;99.90
40670;DHT22;26355;45.528;9.234;2022-10-17T10:55:57;24.60;99.90
40670;DHT22;26355;45.528;9.234;2022-10-17T11:01:29;24.80;99.90
40670;DHT22;26355;45.528;9.234;2022-10-17T11:06:44;24.60;99.90
40670;DHT22;26355;45.528;9.234;2022-10-17T11:11:44;24.40;99.90
40670;DHT22;26355;45.528;9.234;2022-10-17T11:14:18;24.50;99.90
40670;DHT22;26355;45.528;9.234;2022-10-17T11:17:09;24.40;99.90
40670;DHT22;26355;45.528;9.234;2022-10-17T11:19:43;24.40;99.90
40670;DHT22;26355;45.528;9.234;2022-10-17T11:22:17;24.60;99.90
40670;DHT22;26355;45.528;9.234;2022-10-17T11:27:14;25.00;99.90
40670;DHT22;26355;45.528;9.234;2022-10-17T11:29:40;25.00;99.90
40670;DHT22;26355;45.528;9.234;2022-10-17T11:32:17;25.20;99.90
40670;DHT22;26355;45.528;9.234;2022-10-17T11:34:47;25.40;99.90
40670;DHT22;26355;45.528;9.234;2022-10-17T11:37:18;25.50;99.90
40670;DHT22;26355;45.528;9.234;2022-10-17T11:39:58;25.40;99.90
40670;DHT22;26355;45.528;9.234;2022-10-17T11:42:29;25.40;99.90
40670;DHT22;26355;45.528;9.234;2022-10-17T11:45:05;25.40;99.90
40670;DHT22;26355;45.528;9.234;2022-10-17T11:47:52;25.40;99.90
40670;DHT22;26355;45.528;9.234;2022-10-17T11:50:41;25.50;99.90
40670;DHT22;26355;45.528;9.234;2022-10-17T11:53:14;25.40;99.90
40670;DHT22;26355;45.528;9.234;2022-10-17T11:55:41;25.40;99.90
40670;DHT22;26355;45.528;9.234;2022-10-17T11:58:24;25.50;99.90
40670;DHT22;26355;45.528;9.234;2022-10-17T12:06:55;25.70;99.90
40670;DHT22;26355;45.528;9.234;2022-10-17T12:09:28;25.80;99.90
40670;DHT22;26355;45.528;9.234;2022-10-17T12:11:58;25.90;99.90
40670;DHT22;26355;45.528;9.234;2022-10-17T12:14:43;25.90;99.90
40670;DHT22;26355;45.528;9.234;2022-10-17T12:19:48;25.90;99.90
40670;DHT22;26355;45.528;9.234;2022-10-17T12:22:32;25.90;99.90
40670;DHT22;26355;45.528;9.234;2022-10-17T12:25:02;25.90;99.90
40670;DHT22;26355;45.528;9.234;2022-10-17T12:27:43;26.00;99.90
40670;DHT22;26355;45.528;9.234;2022-10-17T12:30:19;26.20;99.90
40670;DHT22;26355;45.528;9.234;2022-10-17T12:35:38;26.20;99.90
40670;DHT22;26355;45.528;9.234;2022-10-17T12:45:54;26.20;99.90
40670;DHT22;26355;45.528;9.234;2022-10-17T12:51:07;26.30;99.90
40670;DHT22;26355;45.528;9.234;2022-10-17T12:56:07;26.20;99.90
40670;DHT22;26355;45.528;9.234;2022-10-17T12:58:34;26.20;99.90
40670;DHT22;26355;45.528;9.234;2022-10-17T13:01:00;26.20;99.90
40670;DHT22;26355;45.528;9.234;2022-10-17T13:03:32;26.30;99.90
40670;DHT22;26355;45.528;9.234;2022-10-17T13:06:02;26.10;99.90
40670;DHT22;26355;45.528;9.234;2022-10-17T13:08:34;26.00;99.90
40670;DHT22;26355;45.528;9.234;2022-10-17T13:11:02;26.00;99.90
40670;DHT22;26355;45.528;9.234;2022-10-17T13:13:37;26.00;99.90
40670;DHT22;26355;45.528;9.234;2022-10-17T13:16:06;25.90;99.90
40670;DHT22;26355;45.528;9.234;2022-10-17T13:18:31;25.80;99.90
40670;DHT22;26355;45.528;9.234;2022-10-17T13:23:27;25.90;99.90
40670;DHT22;26355;45.528;9.234;2022-10-17T13:26:13;25.90;99.90
40670;DHT22;26355;45.528;9.234;2022-10-17T13:28:39;25.90;99.90
40670;DHT22;26355;45.528;9.234;2022-10-17T13:31:05;25.90;99.90
40670;DHT22;26355;45.528;9.234;2022-10-17T13:33:32;25.80;99.90
40670;DHT22;26355;45.528;9.234;2022-10-17T13:35:59;25.70;99.90
40670;DHT22;26355;45.528;9.234;2022-10-17T13:38:30;25.70;99.90
40670;DHT22;26355;45.528;9.234;2022-10-17T13:40:57;25.70;99.90
40670;DHT22;26355;45.528;9.234;2022-10-17T13:43:23;25.80;99.90
40670;DHT22;26355;45.528;9.234;2022-10-17T13:45:52;25.70;99.90
40670;DHT22;26355;45.528;9.234;2022-10-17T13:48:24;25.80;99.90
40670;DHT22;26355;45.528;9.234;2022-10-17T13:50:53;25.80;99.90
40670;DHT22;26355;45.528;9.234;2022-10-17T13:53:23;25.70;99.90
40670;DHT22;26355;45.528;9.234;2022-10-17T13:58:50;25.70;99.90
40670;DHT22;26355;45.528;9.234;2022-10-17T14:01:17;25.60;99.90
40670;DHT22;26355;45.528;9.234;2022-10-17T14:03:44;25.70;99.90
40670;DHT22;26355;45.528;9.234;2022-10-17T14:06:19;25.60;99.90
40670;DHT22;26355;45.528;9.234;2022-10-17T14:09:01;25.60;99.90
40670;DHT22;26355;45.528;9.234;2022-10-17T14:11:37;25.50;99.90
40670;DHT22;26355;45.528;9.234;2022-10-17T14:14:06;25.50;99.90
40670;DHT22;26355;45.528;9.234;2022-10-17T14:16:35;25.60;99.90
40670;DHT22;26355;45.528;9.234;2022-10-17T14:19:01;25.60;99.90
40670;DHT22;26355;45.528;9.234;2022-10-17T14:21:28;25.60;99.90
40670;DHT22;26355;45.528;9.234;2022-10-17T14:24:26;25.60;99.90
40670;DHT22;26355;45.528;9.234;2022-10-17T14:26:52;25.60;99.90
40670;DHT22;26355;45.528;9.234;2022-10-17T14:29:25;25.60;99.90
40670;DHT22;26355;45.528;9.234;2022-10-17T14:32:04;25.60;99.90
40670;DHT22;26355;45.528;9.234;2022-10-17T14:34:33;25.60;99.90
40670;DHT22;26355;45.528;9.234;2022-10-17T14:37:00;25.50;99.90
40670;DHT22;26355;45.528;9.234;2022-10-17T14:39:27;25.50;99.90
40670;DHT22;26355;45.528;9.234;2022-10-17T14:41:53;25.50;99.90
40670;DHT22;26355;45.528;9.234;2022-10-17T14:44:25;25.40;99.90
40670;DHT22;26355;45.528;9.234;2022-10-17T14:47:00;25.50;99.90
40670;DHT22;26355;45.528;9.234;2022-10-17T14:49:35;25.40;99.90
40670;DHT22;26355;45.528;9.234;2022-10-17T14:54:47;25.40;99.90
40670;DHT22;26355;45.528;9.234;2022-10-17T14:57:23;25.40;99.90
40670;DHT22;26355;45.528;9.234;2022-10-17T14:59:50;25.30;99.90
40670;DHT22;26355;45.528;9.234;2022-10-17T15:02:16;25.30;99.90
40670;DHT22;26355;45.528;9.234;2022-10-17T15:04:42;25.30;99.90
40670;DHT22;26355;45.528;9.234;2022-10-17T15:07:15;25.30;99.90
40670;DHT22;26355;45.528;9.234;2022-10-17T15:09:42;25.20;99.90
40670;DHT22;26355;45.528;9.234;2022-10-17T15:12:14;25.20;99.90
40670;DHT22;26355;45.528;9.234;2022-10-17T15:14:41;25.10;99.90
40670;DHT22;26355;45.528;9.234;2022-10-17T15:17:13;25.10;99.90
40670;DHT22;26355;45.528;9.234;2022-10-17T15:19:39;25.00;99.90
40670;DHT22;26355;45.528;9.234;2022-10-17T15:22:05;25.00;99.90
40670;DHT22;26355;45.528;9.234;2022-10-17T15:24:30;25.00;99.90
40670;DHT22;26355;45.528;9.234;2022-10-17T15:26:56;25.00;99.90
40670;DHT22;26355;45.528;9.234;2022-10-17T15:29:21;25.00;99.90
40670;DHT22;26355;45.528;9.234;2022-10-17T15:31:47;24.90;99.90
40670;DHT22;26355;45.528;9.234;2022-10-17T15:34:13;24.90;99.90
40670;DHT22;26355;45.528;9.234;2022-10-17T15:36:40;24.90;99.90
40670;DHT22;26355;45.528;9.234;2022-10-17T15:39:06;24.90;99.90
40670;DHT22;26355;45.528;9.234;2022-10-17T15:41:32;24.80;99.90
40670;DHT22;26355;45.528;9.234;2022-10-17T15:43:58;24.80;99.90
40670;DHT22;26355;45.528;9.234;2022-10-17T15:46:29;24.80;99.90
40670;DHT22;26355;45.528;9.234;2022-10-17T15:49:01;24.80;99.90
40670;DHT22;26355;45.528;9.234;2022-10-17T15:51:27;24.80;99.90
40670;DHT22;26355;45.528;9.234;2022-10-17T15:53:52;24.70;99.90
40670;DHT22;26355;45.528;9.234;2022-10-17T15:58:48;24.60;99.90
40670;DHT22;26355;45.528;9.234;2022-10-17T16:01:23;24.60;99.90
40670;DHT22;26355;45.528;9.234;2022-10-17T16:03:50;24.60;99.90
40670;DHT22;26355;45.528;9.234;2022-10-17T16:06:17;24.60;99.90
40670;DHT22;26355;45.528;9.234;2022-10-17T16:08:43;24.50;99.90
40670;DHT22;26355;45.528;9.234;2022-10-17T16:11:16;24.50;99.90
40670;DHT22;26355;45.528;9.234;2022-10-17T16:13:50;24.50;99.90
40670;DHT22;26355;45.528;9.234;2022-10-17T16:16:16;24.50;99.90
40670;DHT22;26355;45.528;9.234;2022-10-17T16:18:42;24.40;99.90
40670;DHT22;26355;45.528;9.234;2022-10-17T16:21:13;24.30;99.90
40670;DHT22;26355;45.528;9.234;2022-10-17T16:23:40;24.30;99.90
40670;DHT22;26355;45.528;9.234;2022-10-17T16:26:06;24.30;99.90
40670;DHT22;26355;45.528;9.234;2022-10-17T16:28:32;24.30;99.90
40670;DHT22;26355;45.528;9.234;2022-10-17T16:30:58;24.20;99.90
40670;DHT22;26355;45.528;9.234;2022-10-17T16:33:24;24.20;99.90
40670;DHT22;26355;45.528;9.234;2022-10-17T16:35:50;24.10;99.90
40670;DHT22;26355;45.528;9.234;2022-10-17T16:38:16;24.10;99.90
40670;DHT22;26355;45.528;9.234;2022-10-17T16:40:42;24.10;99.90
40670;DHT22;26355;45.528;9.234;2022-10-17T16:43:13;24.10;99.90
40670;DHT22;26355;45.528;9.234;2022-10-17T16:45:39;24.00;99.90
40670;DHT22;26355;45.528;9.234;2022-10-17T16:48:05;24.00;99.90
40670;DHT22;26355;45.528;9.234;2022-10-17T16:50:31;24.00;99.90
40670;DHT22;26355;45.528;9.234;2022-10-17T16:53:00;24.00;99.90
40670;DHT22;26355;45.528;9.234;2022-10-17T16:55:26;23.90;99.90
40670;DHT22;26355;45.528;9.234;2022-10-17T16:57:52;23.90;99.90
40670;DHT22;26355;45.528;9.234;2022-10-17T17:00:18;23.80;99.90
40670;DHT22;26355;45.528;9.234;2022-10-17T17:02:46;23.80;99.90
40670;DHT22;26355;45.528;9.234;2022-10-17T17:05:12;23.80;99.90
40670;DHT22;26355;45.528;9.234;2022-10-17T17:07:38;23.80;99.90
40670;DHT22;26355;45.528;9.234;2022-10-17T17:10:04;23.80;99.90
40670;DHT22;26355;45.528;9.234;2022-10-17T17:12:32;23.70;99.90
40670;DHT22;26355;45.528;9.234;2022-10-17T17:14:57;23.70;99.90